Time;durP1;ratioP1;P1;durP2;ratioP2;P2;SDS_P1;SDS_P2;PMS_P1;PMS_P2;Temp;Humidity;BMP_temperature;BMP_pressure;BME280_temperature;BME280_humidity;BME280_pressure;Samples;Min_cycle;Max_cycle;Signal;HPM_P1;HPM_P2
2021/08/27 00:01:17;;;;;;;10.40;2.43;;;16.80;99.90;;;;;;4952004;28;20187;-81
2021/08/27 00:03:43;;;;;;;9.13;2.77;;;16.70;99.90;;;;;;4952617;28;20195;-84
2021/08/27 00:06:09;;;;;;;9.43;3.00;;;16.60;99.90;;;;;;4946817;28;20668;-81
2021/08/27 00:08:34;;;;;;;8.63;2.97;;;16.60;99.90;;;;;;4943532;28;20274;-84
2021/08/27 00:11:00;;;;;;;8.63;2.60;;;16.60;99.90;;;;;;4945372;28;20179;-78
2021/08/27 00:13:26;;;;;;;10.87;3.27;;;16.60;99.90;;;;;;4950110;28;20184;-78
2021/08/27 00:15:52;;;;;;;9.50;2.67;;;16.50;99.90;;;;;;4955458;28;20557;-78
2021/08/27 00:18:17;;;;;;;13.67;3.50;;;16.50;99.90;;;;;;4953881;28;20656;-80
2021/08/27 00:20:43;;;;;;;9.57;2.93;;;16.60;99.90;;;;;;4951574;28;20190;-79
2021/08/27 00:23:09;;;;;;;11.77;3.20;;;16.50;99.90;;;;;;4952776;28;20183;-80
2021/08/27 00:25:34;;;;;;;8.10;3.07;;;16.40;99.90;;;;;;4954359;28;20703;-79
2021/08/27 00:28:02;;;;;;;10.80;3.33;;;16.40;99.90;;;;;;4942498;28;20185;-77
2021/08/27 00:30:28;;;;;;;12.10;3.60;;;16.50;99.90;;;;;;4954608;28;20183;-85
2021/08/27 00:32:53;;;;;;;11.27;3.10;;;16.50;99.90;;;;;;4954892;28;20543;-82
2021/08/27 00:35:19;;;;;;;13.53;4.37;;;16.50;99.90;;;;;;4938705;28;20262;-84
2021/08/27 00:37:45;;;;;;;8.43;3.00;;;16.50;99.90;;;;;;4955460;28;20187;-84
2021/08/27 00:40:10;;;;;;;9.30;3.07;;;16.40;99.90;;;;;;4953171;28;20182;-86
2021/08/27 00:42:36;;;;;;;10.50;3.80;;;16.20;99.90;;;;;;4953647;28;20562;-85
2021/08/27 00:45:02;;;;;;;10.00;4.00;;;16.20;99.90;;;;;;4952943;28;20181;-78
2021/08/27 00:47:28;;;;;;;11.50;3.37;;;16.20;99.90;;;;;;4946475;28;20647;-79
2021/08/27 00:49:53;;;;;;;10.23;3.37;;;16.20;99.90;;;;;;4950918;28;20208;-78
2021/08/27 00:52:19;;;;;;;11.30;3.03;;;16.20;99.90;;;;;;4949448;28;20215;-78
2021/08/27 00:54:49;;;;;;;10.97;3.37;;;16.20;99.90;;;;;;4944278;28;20223;-78
2021/08/27 00:57:15;;;;;;;10.10;2.93;;;16.20;99.90;;;;;;4954544;28;20191;-78
2021/08/27 00:59:41;;;;;;;10.33;3.13;;;16.30;99.90;;;;;;4955079;28;20191;-78
2021/08/27 01:02:07;;;;;;;12.27;3.40;;;16.20;99.90;;;;;;4955775;28;20259;-84
2021/08/27 01:04:37;;;;;;;15.27;3.33;;;16.30;99.90;;;;;;4953098;28;20187;-83
2021/08/27 01:07:11;;;;;;;13.03;2.80;;;16.20;99.90;;;;;;4947599;28;20194;-83
2021/08/27 01:09:49;;;;;;;12.13;2.83;;;16.20;99.90;;;;;;4954602;28;20788;-85
2021/08/27 01:12:27;;;;;;;11.40;3.07;;;16.30;99.90;;;;;;4950271;28;20183;-85
2021/08/27 01:14:58;;;;;;;9.33;3.07;;;16.30;99.90;;;;;;4947288;28;20219;-86
2021/08/27 01:17:33;;;;;;;9.27;3.03;;;16.20;99.90;;;;;;4945797;28;20196;-84
2021/08/27 01:20:25;;;;;;;7.80;2.70;;;16.10;99.90;;;;;;4950355;28;20187;-85
2021/08/27 01:23:20;;;;;;;11.47;2.77;;;15.90;99.90;;;;;;4919546;28;20252;-84
2021/08/27 01:25:53;;;;;;;6.50;2.30;;;15.90;99.90;;;;;;4953922;28;20218;-85
2021/08/27 01:28:22;;;;;;;9.33;2.43;;;15.90;99.90;;;;;;4954566;28;20197;-85
2021/08/27 01:31:18;;;;;;;8.40;3.00;;;15.90;99.90;;;;;;4952979;28;20274;-85
2021/08/27 01:34:06;;;;;;;8.93;2.63;;;15.90;99.90;;;;;;4950122;28;20662;-84
2021/08/27 01:36:34;;;;;;;7.47;2.67;;;15.70;99.90;;;;;;4951584;28;20215;-85
2021/08/27 01:39:03;;;;;;;7.20;2.23;;;15.80;99.90;;;;;;4956680;28;20654;-85
2021/08/27 01:41:32;;;;;;;9.07;2.60;;;15.70;99.90;;;;;;4948125;28;20190;-85
2021/08/27 01:44:07;;;;;;;11.07;2.53;;;15.70;99.90;;;;;;4956009;28;20190;-85
2021/08/27 01:46:41;;;;;;;9.33;2.70;;;15.70;99.90;;;;;;4953287;28;20186;-85
2021/08/27 01:49:08;;;;;;;8.47;2.33;;;15.80;99.90;;;;;;4954298;28;20195;-85
2021/08/27 01:51:35;;;;;;;11.87;2.27;;;15.90;99.90;;;;;;4953691;28;20180;-85
2021/08/27 01:54:05;;;;;;;5.53;2.10;;;15.70;99.90;;;;;;4958975;28;20253;-85
2021/08/27 01:56:32;;;;;;;4.90;2.03;;;15.70;99.90;;;;;;4950063;28;20195;-84
2021/08/27 01:58:59;;;;;;;5.07;1.93;;;15.70;99.90;;;;;;4958843;28;20193;-77
2021/08/27 02:01:26;;;;;;;5.13;2.40;;;15.60;99.90;;;;;;4956973;28;20182;-78
2021/08/27 02:03:56;;;;;;;7.63;2.10;;;15.70;99.90;;;;;;4957797;28;20297;-77
2021/08/27 02:06:23;;;;;;;6.77;1.77;;;15.80;99.90;;;;;;4958462;28;20204;-79
2021/08/27 02:08:51;;;;;;;8.37;1.97;;;15.80;99.90;;;;;;4957212;28;20195;-85
2021/08/27 02:11:18;;;;;;;9.20;2.17;;;15.90;99.90;;;;;;4955552;28;20190;-84
2021/08/27 02:13:45;;;;;;;7.50;2.37;;;15.80;99.90;;;;;;4947727;28;20192;-85
2021/08/27 02:16:14;;;;;;;5.50;1.80;;;15.80;99.90;;;;;;4955505;28;20187;-85
2021/08/27 02:18:40;;;;;;;6.23;1.77;;;15.60;99.90;;;;;;4957516;28;20179;-84
2021/08/27 02:21:07;;;;;;;11.93;2.20;;;15.60;99.90;;;;;;4956350;28;20186;-85
2021/08/27 02:23:34;;;;;;;7.03;1.80;;;15.60;99.90;;;;;;4957956;28;20567;-85
2021/08/27 02:26:02;;;;;;;7.90;2.17;;;15.50;99.90;;;;;;4957013;28;20229;-85
2021/08/27 02:28:29;;;;;;;5.93;2.00;;;15.60;99.90;;;;;;4956098;28;20187;-85
2021/08/27 02:30:55;;;;;;;4.93;1.80;;;15.50;99.90;;;;;;4945921;28;20266;-85
2021/08/27 02:33:23;;;;;;;5.50;1.90;;;15.60;99.90;;;;;;4955898;28;20234;-78
2021/08/27 02:35:49;;;;;;;9.77;2.33;;;15.60;99.90;;;;;;4957730;28;20233;-79
2021/08/27 02:38:21;;;;;;;13.17;2.60;;;15.60;99.90;;;;;;4957941;28;20190;-78
2021/08/27 02:40:47;;;;;;;8.67;2.27;;;15.70;99.90;;;;;;4957046;28;20648;-77
2021/08/27 02:43:12;;;;;;;6.50;1.80;;;15.80;99.90;;;;;;4956946;28;20183;-79
2021/08/27 02:45:38;;;;;;;4.77;1.93;;;15.70;99.90;;;;;;4950058;28;20662;-77
2021/08/27 02:48:05;;;;;;;9.47;2.40;;;15.60;99.90;;;;;;4954201;28;20209;-85
2021/08/27 02:50:39;;;;;;;9.53;2.10;;;15.60;99.90;;;;;;4956696;28;20656;-85
2021/08/27 02:53:28;;;;;;;8.13;1.43;;;15.80;99.90;;;;;;4952879;28;20191;-84
2021/08/27 02:56:21;;;;;;;5.40;1.80;;;15.80;99.90;;;;;;4957506;28;20632;-84
2021/08/27 02:58:49;;;;;;;3.97;1.50;;;15.60;99.90;;;;;;4956435;28;20191;-81
2021/08/27 03:01:36;;;;;;;12.13;2.63;;;15.60;99.90;;;;;;4947487;28;20662;-77
2021/08/27 03:04:33;;;;;;;4.30;1.67;;;15.90;99.90;;;;;;4954377;28;20182;-79
2021/08/27 03:07:07;;;;;;;5.87;2.00;;;15.80;99.90;;;;;;4917051;28;20217;-78
2021/08/27 03:09:43;;;;;;;5.37;1.53;;;15.60;99.90;;;;;;4955911;28;20265;-80
2021/08/27 03:12:12;;;;;;;7.40;1.47;;;15.60;99.90;;;;;;4949622;28;20655;-85
2021/08/27 03:14:44;;;;;;;7.80;1.90;;;15.60;99.90;;;;;;4957020;28;20699;-78
2021/08/27 03:17:16;;;;;;;4.33;1.77;;;15.60;99.90;;;;;;4953048;28;20677;-79
2021/08/27 03:19:52;;;;;;;4.97;1.50;;;15.60;99.90;;;;;;4955854;28;20245;-79
2021/08/27 03:22:23;;;;;;;8.47;2.00;;;15.60;99.90;;;;;;4953270;28;20706;-79
2021/08/27 03:25:00;;;;;;;11.83;2.00;;;15.50;99.90;;;;;;4953205;28;20289;-80
2021/08/27 03:27:34;;;;;;;5.50;1.73;;;15.70;99.90;;;;;;4956776;28;20240;-77
2021/08/27 03:30:05;;;;;;;7.10;2.10;;;15.80;99.90;;;;;;4946317;28;20194;-78
2021/08/27 03:32:31;;;;;;;5.73;1.77;;;15.80;99.90;;;;;;4951095;28;20261;-83
2021/08/27 03:34:58;;;;;;;5.77;2.30;;;15.90;99.90;;;;;;4947187;28;20230;-85
2021/08/27 03:37:24;;;;;;;9.13;2.03;;;16.10;99.90;;;;;;4941976;28;20577;-85
2021/08/27 03:39:51;;;;;;;6.70;2.23;;;16.10;99.90;;;;;;4956384;28;20191;-85
2021/08/27 03:42:18;;;;;;;8.23;1.70;;;15.90;99.90;;;;;;4976560;28;20321;-85
2021/08/27 03:44:46;;;;;;;10.57;2.33;;;15.90;99.90;;;;;;4951905;28;20195;-85
2021/08/27 03:47:13;;;;;;;8.00;2.10;;;15.90;99.90;;;;;;4956486;28;20651;-77
2021/08/27 03:49:40;;;;;;;6.27;1.70;;;15.70;99.90;;;;;;4952424;28;20238;-78
2021/08/27 03:52:06;;;;;;;10.17;1.90;;;15.80;99.90;;;;;;4952676;28;20221;-79
2021/08/27 03:54:33;;;;;;;8.97;2.17;;;15.60;99.90;;;;;;4948697;28;20221;-78
2021/08/27 03:57:01;;;;;;;9.60;2.60;;;15.50;99.90;;;;;;4947292;28;20730;-79
2021/08/27 03:59:29;;;;;;;8.67;1.83;;;15.50;99.90;;;;;;4956276;28;20199;-77
2021/08/27 04:01:55;;;;;;;4.77;1.80;;;15.50;99.90;;;;;;4946996;28;20191;-78
2021/08/27 04:04:22;;;;;;;6.13;1.97;;;15.50;99.90;;;;;;4954244;28;20190;-77
2021/08/27 04:07:00;;;;;;;4.87;1.73;;;15.50;99.90;;;;;;4953882;28;20290;-78
2021/08/27 04:09:28;;;;;;;9.63;2.27;;;15.50;99.90;;;;;;4949777;28;20198;-79
2021/08/27 04:11:54;;;;;;;5.97;2.20;;;15.40;99.90;;;;;;4955744;28;20184;-79
2021/08/27 04:14:20;;;;;;;10.37;1.80;;;15.30;99.90;;;;;;4953415;28;20243;-79
2021/08/27 04:16:46;;;;;;;8.33;1.97;;;15.30;99.90;;;;;;4952416;28;20218;-84
2021/08/27 04:19:12;;;;;;;5.47;1.80;;;15.30;99.90;;;;;;4953769;28;20732;-85
2021/08/27 04:21:38;;;;;;;7.23;2.40;;;15.30;99.90;;;;;;4952026;28;20217;-85
2021/08/27 04:24:05;;;;;;;11.00;2.70;;;15.30;99.90;;;;;;4947268;28;20551;-77
2021/08/27 04:26:31;;;;;;;12.80;2.43;;;15.30;99.90;;;;;;4948131;28;20498;-77
2021/08/27 04:28:56;;;;;;;10.93;2.43;;;15.30;99.90;;;;;;4948041;28;20246;-77
2021/08/27 04:31:22;;;;;;;11.03;2.50;;;15.20;99.90;;;;;;4953574;28;20186;-78
2021/08/27 04:33:47;;;;;;;13.77;3.07;;;15.20;99.90;;;;;;4955183;28;20645;-78
2021/08/27 04:36:14;;;;;;;13.60;3.50;;;15.00;99.90;;;;;;4954729;28;20187;-79
2021/08/27 04:38:40;;;;;;;9.13;2.63;;;15.10;99.90;;;;;;4954449;28;20200;-77
2021/08/27 04:41:05;;;;;;;6.87;2.33;;;15.10;99.90;;;;;;4951783;28;20258;-78
2021/08/27 04:43:31;;;;;;;8.07;2.27;;;15.10;99.90;;;;;;4953188;28;20183;-77
2021/08/27 04:45:56;;;;;;;9.40;2.27;;;15.10;99.90;;;;;;4954639;28;20209;-79
2021/08/27 04:48:22;;;;;;;8.80;2.47;;;15.00;99.90;;;;;;4953912;28;20547;-77
2021/08/27 04:50:48;;;;;;;10.80;2.73;;;15.00;99.90;;;;;;4953586;28;20533;-77
2021/08/27 04:53:14;;;;;;;9.23;2.40;;;15.00;99.90;;;;;;4955205;28;20647;-84
2021/08/27 04:55:39;;;;;;;6.53;2.30;;;15.00;99.90;;;;;;4951010;28;20229;-78
2021/08/27 04:58:05;;;;;;;10.73;2.33;;;14.90;99.90;;;;;;4947525;28;20607;-79
2021/08/27 05:00:30;;;;;;;7.27;2.47;;;14.90;99.90;;;;;;4952818;28;20285;-79
2021/08/27 05:02:56;;;;;;;12.30;2.90;;;14.80;99.90;;;;;;4955432;28;20190;-79
2021/08/27 05:05:22;;;;;;;11.43;3.47;;;14.90;99.90;;;;;;4954785;28;20195;-84
2021/08/27 05:07:47;;;;;;;11.43;2.70;;;14.90;99.90;;;;;;4958109;28;20632;-85
2021/08/27 05:10:13;;;;;;;14.03;3.27;;;15.00;99.90;;;;;;4955369;28;20471;-84
2021/08/27 05:12:39;;;;;;;9.83;2.60;;;15.00;99.90;;;;;;4953013;28;20560;-83
2021/08/27 05:15:06;;;;;;;12.67;3.07;;;15.10;99.90;;;;;;4950036;28;20665;-84
2021/08/27 05:17:31;;;;;;;13.40;3.07;;;15.20;99.90;;;;;;4950663;28;20180;-84
2021/08/27 05:19:57;;;;;;;15.17;3.03;;;15.20;99.90;;;;;;4946962;28;20525;-85
2021/08/27 05:22:23;;;;;;;9.57;2.50;;;15.20;99.90;;;;;;4941798;28;20548;-81
2021/08/27 05:24:48;;;;;;;11.57;2.57;;;15.00;99.90;;;;;;4942857;28;20201;-79
2021/08/27 05:27:50;;;;;;;6.83;2.50;;;14.80;99.90;;;;;;4951508;28;20566;-95
2021/08/27 05:30:43;;;;;;;12.47;3.00;;;14.80;99.90;;;;;;4944060;28;20603;-95
2021/08/27 05:33:29;;;;;;;8.40;2.23;;;14.80;99.90;;;;;;4948861;28;20206;-96
2021/08/27 05:40:00;;;;;;;;;;;;;;;;;;;;;
2021/08/27 05:49:37;;;;;;;;;;;;;;;;;;;;;
2021/08/27 05:52:44;;;;;;;7.37;2.57;;;15.10;99.90;;;;;;4952908;28;20221;-94
2021/08/27 05:55:44;;;;;;;11.90;2.47;;;15.20;99.90;;;;;;4952191;28;20511;-96
2021/08/27 05:59:03;;;;;;;;;;;;;;;;;;;;;
2021/08/27 06:02:11;;;;;;;13.57;2.40;;;15.70;99.90;;;;;;4960557;28;20249;-94
2021/08/27 06:05:17;;;;;;;14.07;2.80;;;15.60;99.90;;;;;;4958067;28;20232;-95
2021/08/27 06:13:17;;;;;;;;;;;;;;;;;;;;;
2021/08/27 06:34:14;;;;;;;6.90;2.53;;;16.00;99.90;;;;;;4710247;30;20289;-96
2021/08/27 06:37:07;;;;;;;;;;;;;;;;;;;;;
2021/08/27 11:14:21;;;;;;;2.37;1.00;;;21.30;96.10;;;;;;4890056;23;20241;-88
2021/08/27 11:17:06;;;;;;;4.53;1.00;;;21.40;96.80;;;;;;4935409;29;20194;-88
2021/08/27 11:19:37;;;;;;;4.03;1.00;;;21.50;96.90;;;;;;4925112;29;20191;-88
2021/08/27 11:22:12;;;;;;;9.70;1.03;;;21.60;97.10;;;;;;4937628;29;20191;-88
2021/08/27 11:25:01;;;;;;;5.00;0.90;;;21.70;96.90;;;;;;4934160;29;20211;-88
2021/08/27 11:27:27;;;;;;;2.97;0.70;;;21.90;96.90;;;;;;4932223;29;20195;-88
2021/08/27 11:29:53;;;;;;;5.23;0.80;;;21.90;96.40;;;;;;4951510;28;20787;-87
2021/08/27 11:32:31;;;;;;;3.37;0.90;;;21.80;96.00;;;;;;4955945;28;20218;-88
2021/08/27 11:35:05;;;;;;;8.10;1.40;;;21.80;96.80;;;;;;4940557;28;20235;-89
2021/08/27 11:37:31;;;;;;;6.33;1.00;;;21.90;96.60;;;;;;4951860;28;20187;-89
2021/08/27 11:39:57;;;;;;;5.67;1.20;;;22.10;96.30;;;;;;4936461;29;20239;-88
2021/08/27 11:42:23;;;;;;;3.63;1.10;;;22.40;96.50;;;;;;4954006;28;20225;-88
2021/08/27 11:45:09;;;;;;;13.13;1.47;;;22.80;96.40;;;;;;4937770;29;20223;-88
2021/08/27 11:47:51;;;;;;;5.70;1.07;;;22.80;96.30;;;;;;4945501;29;20187;-88
2021/08/27 11:50:23;;;;;;;4.20;1.20;;;22.70;96.40;;;;;;4936009;29;20207;-88
2021/08/27 11:52:51;;;;;;;5.47;1.30;;;22.40;96.70;;;;;;4936396;29;20196;-89
2021/08/27 11:55:17;;;;;;;4.47;1.00;;;22.20;97.00;;;;;;4951165;28;20187;-85
2021/08/27 11:57:50;;;;;;;3.10;0.90;;;22.10;97.30;;;;;;4936262;29;20183;-86
2021/08/27 12:00:17;;;;;;;6.03;1.10;;;22.00;97.50;;;;;;4932226;29;20211;-86
2021/08/27 12:02:42;;;;;;;8.60;1.50;;;21.90;97.60;;;;;;4952866;28;20520;-85
2021/08/27 12:05:12;;;;;;;8.90;1.57;;;21.90;97.80;;;;;;4952172;28;20218;-85
2021/08/27 12:07:53;;;;;;;6.97;1.23;;;21.90;97.70;;;;;;4952851;28;20191;-85
2021/08/27 12:10:19;;;;;;;6.67;1.20;;;21.90;97.60;;;;;;4963319;28;20645;-85
2021/08/27 12:12:47;;;;;;;6.23;1.30;;;21.90;97.70;;;;;;4952458;28;20653;-85
2021/08/27 12:15:21;;;;;;;6.30;1.30;;;21.90;97.40;;;;;;4952215;28;20201;-85
2021/08/27 12:17:52;;;;;;;4.80;1.00;;;21.80;97.40;;;;;;4937290;29;20229;-85
2021/08/27 12:20:19;;;;;;;5.63;1.57;;;21.70;97.50;;;;;;4937240;29;20364;-85
2021/08/27 12:22:45;;;;;;;5.60;1.97;;;21.60;97.40;;;;;;4935059;29;20190;-85
2021/08/27 12:25:18;;;;;;;7.13;1.67;;;21.50;97.90;;;;;;4951808;28;20333;-85
2021/08/27 12:27:49;;;;;;;6.83;1.30;;;21.70;97.60;;;;;;4950270;28;20207;-85
2021/08/27 12:30:16;;;;;;;4.27;1.27;;;22.00;97.40;;;;;;4953538;28;20184;-86
2021/08/27 12:32:43;;;;;;;5.40;1.50;;;22.30;96.80;;;;;;4953006;28;20184;-85
2021/08/27 12:35:12;;;;;;;5.20;1.40;;;22.70;96.60;;;;;;4952975;28;20613;-90
2021/08/27 12:37:39;;;;;;;5.33;1.40;;;23.10;95.70;;;;;;4953060;28;20194;-87
2021/08/27 12:40:10;;;;;;;6.10;1.80;;;23.20;95.90;;;;;;4953234;28;20176;-86
2021/08/27 12:42:36;;;;;;;13.10;1.70;;;23.20;95.70;;;;;;4954460;28;20698;-85
2021/08/27 12:45:10;;;;;;;7.70;1.70;;;23.00;96.00;;;;;;4952442;28;20322;-86
2021/08/27 12:47:41;;;;;;;10.53;2.03;;;22.70;96.40;;;;;;4952397;28;20178;-85
2021/08/27 12:50:14;;;;;;;4.47;1.97;;;22.40;96.70;;;;;;4953015;28;20182;-86
2021/08/27 14:12:26;;;;;;;6.33;1.50;;;29.90;80.30;;;;;;5334002;23;20258;-84
2021/08/27 14:14:51;;;;;;;6.73;1.50;;;30.60;78.40;;;;;;4916237;29;20598;-81
2021/08/27 14:17:17;;;;;;;6.10;1.30;;;30.70;75.80;;;;;;4914818;29;20200;-85
2021/08/27 14:19:43;;;;;;;8.20;1.13;;;31.00;75.20;;;;;;4916456;29;20248;-84
2021/08/27 14:22:08;;;;;;;5.18;1.25;;;31.50;74.20;;;;;;4916427;29;20188;-84
2021/08/27 14:24:34;;;;;;;5.88;1.17;;;32.00;73.20;;;;;;4916090;29;20583;-83
2021/08/27 14:27:00;;;;;;;10.20;2.00;;;32.60;72.60;;;;;;4915112;29;20189;-84
2021/08/27 14:29:26;;;;;;;7.32;2.05;;;32.50;71.30;;;;;;4915634;29;20642;-80
2021/08/27 14:31:51;;;;;;;5.65;1.15;;;32.40;69.80;;;;;;4915386;29;20181;-80
2021/08/27 14:34:17;;;;;;;7.43;1.83;;;32.50;68.80;;;;;;4914384;29;20207;-80
2021/08/27 14:36:43;;;;;;;9.98;1.40;;;32.60;68.10;;;;;;4914814;29;20343;-81
2021/08/27 14:39:09;;;;;;;5.90;1.27;;;32.50;67.40;;;;;;4928769;29;20553;-80
2021/08/27 14:41:36;;;;;;;6.03;1.30;;;31.90;67.90;;;;;;4915951;29;20263;-84
2021/08/27 14:44:03;;;;;;;5.15;1.20;;;32.00;68.00;;;;;;4911341;29;20193;-80
2021/08/27 14:46:30;;;;;;;9.13;1.83;;;31.80;66.90;;;;;;4910586;29;20649;-80
2021/08/27 14:48:57;;;;;;;4.57;1.10;;;31.30;68.40;;;;;;4913581;29;20244;-80
2021/08/27 14:51:23;;;;;;;6.28;1.33;;;31.60;67.90;;;;;;4917944;29;20310;-80
2021/08/27 14:53:49;;;;;;;4.63;1.00;;;31.80;67.70;;;;;;4917541;29;20180;-79
2021/08/27 14:56:14;;;;;;;3.80;0.93;;;31.40;67.70;;;;;;4917775;29;20187;-81
2021/08/27 14:58:40;;;;;;;3.70;1.10;;;31.40;68.20;;;;;;4918438;29;20267;-81
2021/08/27 15:01:06;;;;;;;7.67;1.70;;;30.30;68.40;;;;;;4917192;29;20242;-79
2021/08/27 15:03:32;;;;;;;6.43;0.97;;;29.30;70.90;;;;;;4918787;29;20250;-80
2021/08/27 15:05:57;;;;;;;4.97;1.00;;;29.00;71.30;;;;;;4916424;29;20251;-79
2021/08/27 15:08:23;;;;;;;7.60;1.37;;;28.70;71.80;;;;;;4918666;29;20757;-79
2021/08/27 15:10:50;;;;;;;4.60;1.27;;;27.90;71.60;;;;;;4918078;29;20185;-80
2021/08/27 15:13:15;;;;;;;6.27;1.80;;;27.60;72.80;;;;;;4916327;29;20288;-81
2021/08/27 15:15:41;;;;;;;9.03;1.33;;;27.00;74.30;;;;;;4916377;29;20267;-83
2021/08/27 15:18:07;;;;;;;7.30;1.30;;;26.80;75.30;;;;;;4908498;29;20228;-81
2021/08/27 15:20:32;;;;;;;6.13;1.40;;;26.40;75.80;;;;;;4910546;29;20184;-84
2021/08/27 15:22:59;;;;;;;4.00;0.70;;;26.80;75.70;;;;;;4914743;29;20201;-83
2021/08/27 15:25:28;;;;;;;5.23;0.90;;;27.90;74.40;;;;;;4914401;29;20224;-85
2021/08/27 15:27:58;;;;;;;3.70;1.37;;;28.60;73.40;;;;;;4915395;29;20232;-85
2021/08/27 15:30:25;;;;;;;6.67;0.97;;;28.60;72.70;;;;;;4919089;29;20280;-85
2021/08/27 15:32:51;;;;;;;8.10;1.30;;;28.90;73.00;;;;;;4917197;29;20188;-84
2021/08/27 15:35:17;;;;;;;11.10;1.57;;;29.30;71.50;;;;;;4915275;29;20192;-83
2021/08/27 15:37:43;;;;;;;6.33;0.90;;;29.30;71.50;;;;;;4914945;29;20184;-85
2021/08/27 15:40:09;;;;;;;5.90;1.60;;;29.40;70.60;;;;;;4916637;29;20243;-85
2021/08/27 15:42:34;;;;;;;5.57;1.10;;;29.50;69.90;;;;;;4917446;29;20188;-84
2021/08/27 15:45:01;;;;;;;5.13;1.00;;;29.20;70.00;;;;;;4911019;29;20201;-85
2021/08/27 15:47:30;;;;;;;9.30;1.33;;;29.50;70.60;;;;;;4911822;29;20192;-84
2021/08/27 15:49:57;;;;;;;3.83;1.10;;;29.80;69.20;;;;;;4918027;29;20232;-79
2021/08/27 15:52:24;;;;;;;8.37;1.30;;;28.90;69.60;;;;;;4917451;29;20232;-82
2021/08/27 15:54:50;;;;;;;5.87;1.17;;;27.20;72.70;;;;;;4916621;29;20695;-79
2021/08/27 15:57:16;;;;;;;7.87;1.50;;;26.30;75.00;;;;;;4914677;29;20244;-79
2021/08/27 15:59:41;;;;;;;10.13;1.60;;;25.70;76.30;;;;;;4916357;29;20192;-79
2021/08/27 16:02:07;;;;;;;4.80;1.13;;;26.00;76.00;;;;;;4916884;29;20679;-80
2021/08/27 16:04:33;;;;;;;3.47;1.20;;;26.30;75.90;;;;;;4915311;29;20291;-80
2021/08/27 16:06:58;;;;;;;5.90;1.27;;;26.60;75.90;;;;;;4916141;29;20770;-79
2021/08/27 16:09:24;;;;;;;7.57;1.40;;;27.20;74.80;;;;;;4914148;29;20688;-79
2021/08/27 16:11:51;;;;;;;8.40;1.40;;;27.30;74.40;;;;;;4919038;29;20220;-80
2021/08/27 16:14:17;;;;;;;8.53;1.00;;;27.60;74.40;;;;;;4917323;29;20184;-79
2021/08/27 16:16:42;;;;;;;8.43;1.30;;;28.10;73.70;;;;;;4912910;29;20200;-79
2021/08/27 16:19:08;;;;;;;5.43;1.23;;;28.20;73.10;;;;;;4916427;29;20195;-78
2021/08/27 16:21:35;;;;;;;5.33;1.33;;;28.00;74.10;;;;;;4913514;29;20224;-81
2021/08/27 16:24:03;;;;;;;4.90;1.33;;;28.50;73.90;;;;;;4914046;29;20633;-80
2021/08/27 16:26:33;;;;;;;3.83;1.43;;;28.50;73.80;;;;;;4916044;29;20257;-81
2021/08/27 16:29:01;;;;;;;4.80;1.30;;;28.40;73.50;;;;;;4916736;29;20557;-80
2021/08/27 16:31:27;;;;;;;8.27;1.67;;;28.30;73.60;;;;;;4916182;29;20256;-80
2021/08/27 16:33:53;;;;;;;6.77;1.50;;;28.40;74.10;;;;;;4910673;29;20182;-79
2021/08/27 16:36:18;;;;;;;5.13;0.90;;;27.70;74.60;;;;;;4911305;29;20590;-79
2021/08/27 16:38:44;;;;;;;7.23;1.70;;;27.80;75.20;;;;;;4917308;29;20185;-80
2021/08/27 16:41:10;;;;;;;7.13;1.30;;;28.10;74.90;;;;;;4913915;29;20185;-79
2021/08/27 16:43:35;;;;;;;4.30;1.10;;;28.40;74.70;;;;;;4916728;29;20228;-78
2021/08/27 16:46:01;;;;;;;10.57;1.40;;;28.40;75.10;;;;;;4911421;29;20220;-79
2021/08/27 16:48:26;;;;;;;6.50;1.50;;;28.60;74.40;;;;;;4914938;29;20199;-80
2021/08/27 16:50:52;;;;;;;10.00;1.30;;;28.70;74.20;;;;;;4916872;29;20195;-80
2021/08/27 16:53:18;;;;;;;8.07;1.47;;;28.50;74.30;;;;;;4915749;29;20192;-79
2021/08/27 16:55:43;;;;;;;4.57;1.03;;;28.30;74.60;;;;;;4912974;29;20184;-79
2021/08/27 16:58:09;;;;;;;4.60;1.50;;;28.00;75.40;;;;;;4904446;29;20192;-79
2021/08/27 17:00:35;;;;;;;6.50;1.50;;;27.90;75.80;;;;;;4914832;29;20588;-80
2021/08/27 17:03:00;;;;;;;7.10;1.73;;;27.80;76.20;;;;;;4910721;29;20189;-79
2021/08/27 17:05:26;;;;;;;6.93;1.60;;;27.50;76.60;;;;;;4912950;29;20665;-81
2021/08/27 17:07:52;;;;;;;6.57;1.40;;;27.40;77.40;;;;;;4912311;29;20184;-80
2021/08/27 17:10:18;;;;;;;9.10;1.60;;;26.90;77.80;;;;;;4915075;29;20192;-79
2021/08/27 17:12:44;;;;;;;6.77;1.60;;;26.80;78.70;;;;;;4907782;29;20299;-79
2021/08/27 17:15:10;;;;;;;8.73;1.70;;;26.60;79.10;;;;;;4911566;29;20626;-79
2021/08/27 17:17:36;;;;;;;6.37;1.53;;;25.90;80.70;;;;;;4914223;29;20193;-79
2021/08/27 17:20:02;;;;;;;10.77;2.07;;;25.50;81.90;;;;;;4915043;29;20193;-81
2021/08/27 17:22:28;;;;;;;6.40;1.40;;;25.30;82.10;;;;;;4911572;29;20214;-78
2021/08/27 17:24:53;;;;;;;7.47;1.50;;;25.10;81.70;;;;;;4912319;29;20230;-80
2021/08/27 17:27:19;;;;;;;6.40;1.43;;;24.80;82.70;;;;;;4906464;29;20194;-78
2021/08/27 17:29:45;;;;;;;6.30;1.63;;;24.60;83.60;;;;;;4913863;29;20267;-80
2021/08/27 17:32:10;;;;;;;9.73;1.70;;;24.20;84.60;;;;;;4912493;29;20287;-79
2021/08/27 17:34:36;;;;;;;9.20;1.50;;;23.80;85.70;;;;;;4911846;29;20193;-80
2021/08/27 17:37:02;;;;;;;7.53;1.53;;;23.50;86.90;;;;;;4913622;29;20569;-79
2021/08/27 17:39:27;;;;;;;7.40;1.97;;;23.50;87.50;;;;;;4911274;29;20247;-80
2021/08/27 17:41:53;;;;;;;6.47;1.50;;;23.70;87.30;;;;;;4909053;29;20557;-79
2021/08/27 17:44:19;;;;;;;9.27;1.67;;;23.60;87.70;;;;;;4914364;29;20197;-80
2021/08/27 17:46:44;;;;;;;6.93;1.50;;;23.20;89.30;;;;;;4913894;29;20284;-79
2021/08/27 17:49:10;;;;;;;8.00;1.77;;;22.70;90.30;;;;;;4910263;29;20267;-80
2021/08/27 17:51:36;;;;;;;8.97;2.07;;;22.60;90.70;;;;;;4912866;29;20196;-79
2021/08/27 17:54:02;;;;;;;4.20;1.27;;;22.50;90.90;;;;;;4912700;29;20202;-78
2021/08/27 17:56:28;;;;;;;8.97;1.93;;;22.30;91.10;;;;;;4914978;29;20202;-79
2021/08/27 17:58:54;;;;;;;8.27;1.83;;;22.10;91.50;;;;;;4910461;29;20196;-82
2021/08/27 18:01:19;;;;;;;9.07;1.70;;;21.90;91.90;;;;;;4910719;29;20184;-82
2021/08/27 18:03:45;;;;;;;11.23;1.67;;;21.80;92.30;;;;;;4914276;29;20263;-81
2021/08/27 18:06:11;;;;;;;7.67;1.50;;;21.70;92.40;;;;;;4906450;29;20237;-83
2021/08/27 18:08:38;;;;;;;6.10;1.90;;;21.80;92.60;;;;;;4914628;29;20192;-81
2021/08/27 18:11:04;;;;;;;6.10;1.63;;;21.80;92.80;;;;;;4913357;29;20225;-83
2021/08/27 18:13:29;;;;;;;6.90;1.53;;;21.80;93.00;;;;;;4909550;29;20222;-82
2021/08/27 18:15:55;;;;;;;6.50;1.80;;;21.70;93.40;;;;;;4912658;29;20222;-83
2021/08/27 18:18:21;;;;;;;7.23;1.70;;;21.60;93.50;;;;;;4909053;29;20195;-79
2021/08/27 18:20:46;;;;;;;7.67;1.90;;;21.50;93.80;;;;;;4908296;29;20191;-79
2021/08/27 18:23:12;;;;;;;7.23;2.07;;;21.40;94.10;;;;;;4910828;29;20534;-78
2021/08/27 18:25:39;;;;;;;6.80;1.80;;;21.30;94.20;;;;;;4912758;29;20237;-80
2021/08/27 18:28:04;;;;;;;5.07;2.07;;;21.30;94.50;;;;;;4910870;29;20233;-80
2021/08/27 18:30:30;;;;;;;7.50;1.80;;;21.30;94.70;;;;;;4915599;29;20278;-79
2021/08/27 18:32:56;;;;;;;6.63;1.67;;;21.40;94.60;;;;;;4913240;29;20184;-79
2021/08/27 18:35:21;;;;;;;6.67;1.83;;;21.40;94.70;;;;;;4910675;29;20203;-79
2021/08/27 18:37:47;;;;;;;7.47;1.60;;;21.40;94.50;;;;;;4913055;29;20684;-79
2021/08/27 18:40:13;;;;;;;7.27;1.83;;;21.50;94.60;;;;;;4908679;29;20277;-78
2021/08/27 18:42:42;;;;;;;7.60;1.40;;;21.40;94.80;;;;;;4912363;29;20784;-79
2021/08/27 18:45:08;;;;;;;4.37;1.70;;;21.30;95.00;;;;;;4913065;29;20227;-81
2021/08/27 18:47:33;;;;;;;6.60;1.60;;;21.40;95.00;;;;;;4916557;29;20227;-80
2021/08/27 18:49:59;;;;;;;7.93;1.60;;;21.40;95.20;;;;;;4917181;29;20664;-83
2021/08/27 18:52:24;;;;;;;8.13;1.87;;;21.30;95.30;;;;;;4915751;29;20191;-83
2021/08/27 18:54:50;;;;;;;8.17;1.57;;;21.40;95.40;;;;;;4915106;29;20202;-78
2021/08/27 18:57:15;;;;;;;11.20;1.90;;;21.20;95.70;;;;;;4916348;29;20708;-79
2021/08/27 18:59:42;;;;;;;5.00;1.83;;;21.00;96.10;;;;;;4913943;29;20327;-83
2021/08/27 19:02:08;;;;;;;11.60;2.37;;;21.10;96.20;;;;;;4915454;29;20195;-84
2021/08/27 19:04:34;;;;;;;8.83;2.20;;;21.10;96.40;;;;;;4909839;29;20688;-84
2021/08/27 19:06:59;;;;;;;10.67;1.77;;;21.20;96.30;;;;;;4916896;29;20199;-83
2021/08/27 19:09:26;;;;;;;6.33;2.00;;;21.20;96.30;;;;;;4914799;29;20183;-83
2021/08/27 19:11:53;;;;;;;9.60;2.07;;;21.20;96.30;;;;;;4912284;29;20287;-83
2021/08/27 19:14:19;;;;;;;5.67;1.77;;;21.30;96.20;;;;;;4915907;29;20187;-80
2021/08/27 19:16:45;;;;;;;6.50;1.77;;;21.30;96.10;;;;;;4912509;29;20200;-80
2021/08/27 19:19:10;;;;;;;5.70;1.77;;;21.20;96.40;;;;;;4911470;29;20256;-80
2021/08/27 19:21:36;;;;;;;6.03;1.83;;;21.20;96.40;;;;;;4912756;29;20210;-79
2021/08/27 19:24:02;;;;;;;5.70;1.80;;;21.10;96.70;;;;;;4914497;29;20198;-79
2021/08/27 19:26:27;;;;;;;6.57;1.97;;;20.90;97.30;;;;;;4916423;29;20236;-79
2021/08/27 19:28:53;;;;;;;6.20;1.87;;;20.80;97.60;;;;;;4912116;29;21054;-79